Cadjehoun Airport

Jump to: basic info | weather | frequencies | runways | comments

Related pages: nearby airports | nearby navaids | notams | map

Basic information (top)

Codes: COO DBBB
Location: lon 6.357230, lat 2.384350, elev 19 ft / 6 m msl
Status: medium_airport
Scheduled airline service: yes
Links: Wikipedia Mobile

Weather (top)

Current conditions (rec'd 2014/04/20 05:00Z):

DBBB 200500Z 23008KT 9999 SCT012 28/27 Q1008 TEMPO BKN010

Airport forecast (rec'd 2014/04/18 00:46Z):

TAF DBBB 182300Z 1900/2006 34002KT 9999 SCT013 
      TEMPO 1904/1908 TS SCT013 FEW023CB PROB30 4000 TSRA BKN010 FEW023CB 
      BECMG 1908/1910 22010KT 
      BECMG 1911/1913 SCT013 FEW023CB 
      TEMPO 1914/1919 TS PROB30 4000 TSRA BKN010 FEW023CB 
      BECMG 1918/1920 SCT013

Frequencies (top)

Verify before use: may be inaccurate or out of date.

A/G: 658.6 MHz (A/G VOICE RDO)
APP: 125.9 MHz (APP)
TWR: 125.9 MHz (TWR)

Runways (top)

06/24: 7,874 x 148 ft (2,400 x 45 m) — paved — lighted — threshold 06 displaced 125 ft (38 m)

Latest comments (top)

No comments yet for Cadjehoun Airport

More... (top)

See also NOTAMs and nearby airports and navaids, or visit the Cadjehoun Airport page at the main OurAirports website..